createdAt,value
2023-05-22T00:02:00.122Z,101527.42
2023-05-22T00:04:30.287Z,101523.20
2023-05-22T00:07:00.173Z,101531.73
2023-05-22T00:09:30.036Z,101532.78
2023-05-22T00:11:59.982Z,101532.28
2023-05-22T00:14:29.811Z,101539.36
2023-05-22T00:17:00.185Z,101542.29
2023-05-22T00:19:30.432Z,101547.23
2023-05-22T00:22:00.610Z,101544.55
2023-05-22T00:24:30.451Z,101542.52
2023-05-22T00:27:00.678Z,101539.44
2023-05-22T00:29:31.094Z,101540.75
2023-05-22T00:32:01.265Z,101533.33
2023-05-22T00:34:31.167Z,101532.66
2023-05-22T00:37:01.134Z,101531.27
2023-05-22T00:39:30.975Z,101528.45
2023-05-22T00:42:01.468Z,101520.30
2023-05-22T00:44:31.457Z,101522.45
2023-05-22T00:47:01.631Z,101510.33
2023-05-22T00:49:31.794Z,101513.23
2023-05-22T00:52:02.503Z,101514.66
2023-05-22T00:54:33.710Z,101510.55
2023-05-22T00:57:04.445Z,101509.78
2023-05-22T00:59:35.413Z,101504.55
2023-05-22T01:02:07.071Z,101506.36
2023-05-22T01:04:37.394Z,101514.00
2023-05-22T01:07:07.649Z,101506.65
2023-05-22T01:09:37.504Z,101499.81
2023-05-22T01:12:30.246Z,101499.10
2023-05-22T01:15:09.235Z,101499.10
2023-05-22T01:17:42.191Z,101502.33
2023-05-22T01:20:25.526Z,101495.75
2023-05-22T01:23:16.236Z,101495.20
2023-05-22T01:26:08.306Z,101494.25
2023-05-22T01:29:06.576Z,101498.92
2023-05-22T01:31:39.465Z,101501.08
2023-05-22T01:34:13.166Z,101494.53
2023-05-22T01:36:45.243Z,101497.41
2023-05-22T01:39:16.531Z,101506.48
2023-05-22T01:41:47.800Z,101499.81
2023-05-22T01:44:17.755Z,101506.91
2023-05-22T01:46:47.597Z,101502.66
2023-05-22T01:49:18.197Z,101496.03
2023-05-22T01:51:59.781Z,101498.63
2023-05-22T01:54:39.841Z,101498.63
2023-05-22T01:57:12.751Z,101498.90
2023-05-22T01:59:52.490Z,101486.67
2023-05-22T02:02:24.330Z,101490.70
2023-05-22T02:04:59.903Z,101496.45
2023-05-22T02:07:31.617Z,101483.91
2023-05-22T02:10:03.115Z,101487.84
2023-05-22T02:12:33.304Z,101486.62
2023-05-22T02:15:06.329Z,101483.91
2023-05-22T02:17:44.794Z,101481.94
2023-05-22T02:20:16.157Z,101491.05
2023-05-22T02:22:48.196Z,101487.30
2023-05-22T02:25:18.158Z,101484.60
2023-05-22T02:27:49.748Z,101485.14
2023-05-22T02:30:19.325Z,101483.01
2023-05-22T02:32:50.934Z,101484.58
2023-05-22T02:35:21.149Z,101473.59
2023-05-22T02:37:51.036Z,101473.00
2023-05-22T02:40:20.957Z,101470.61
2023-05-22T02:42:51.980Z,101471.17
2023-05-22T02:45:22.037Z,101471.17
2023-05-22T02:47:52.054Z,101466.80
2023-05-22T02:50:21.773Z,101471.33
2023-05-22T02:52:51.461Z,101466.47
2023-05-22T02:55:21.472Z,101465.33
2023-05-22T02:57:51.699Z,101464.37
2023-05-22T03:00:22.253Z,101465.16
2023-05-22T03:02:52.214Z,101457.91
2023-05-22T03:05:22.021Z,101462.69
2023-05-22T03:07:54.072Z,101468.67
2023-05-22T03:10:24.670Z,101468.45
2023-05-22T03:12:54.892Z,101466.95
2023-05-22T03:15:24.681Z,101462.17
2023-05-22T03:17:56.462Z,101464.52
2023-05-22T03:20:26.477Z,101465.39
2023-05-22T03:22:56.361Z,101463.19
2023-05-22T03:25:26.189Z,101458.98
2023-05-22T03:27:56.048Z,101451.44
2023-05-22T03:30:26.840Z,101452.03
2023-05-22T03:32:58.796Z,101452.27
2023-05-22T03:35:28.622Z,101448.45
2023-05-22T03:37:58.654Z,101452.94
2023-05-22T03:40:28.215Z,101450.07
2023-05-22T03:42:58.255Z,101450.66
2023-05-22T03:45:28.134Z,101457.92
2023-05-22T03:47:58.852Z,101457.08
2023-05-22T03:50:28.860Z,101460.13
2023-05-22T03:52:58.726Z,101443.19
2023-05-22T03:55:30.734Z,101443.19
2023-05-22T03:58:00.554Z,101458.98
2023-05-22T04:00:31.663Z,101451.13
2023-05-22T04:03:01.776Z,101456.49
2023-05-22T04:05:32.331Z,101455.57
2023-05-22T04:08:02.171Z,101458.68
2023-05-22T04:10:31.902Z,101464.81
2023-05-22T04:13:01.764Z,101464.16
2023-05-22T04:15:32.945Z,101465.09
2023-05-22T04:18:02.989Z,101465.13
2023-05-22T04:20:33.214Z,101467.80
2023-05-22T04:23:03.087Z,101466.96
2023-05-22T04:25:34.273Z,101462.20
2023-05-22T04:28:06.354Z,101461.64
2023-05-22T04:30:38.262Z,101462.48
2023-05-22T04:33:08.719Z,101458.50
2023-05-22T04:35:40.653Z,101460.16
2023-05-22T04:38:11.584Z,101462.48
2023-05-22T04:40:41.714Z,101466.41
2023-05-22T04:43:12.590Z,101467.16
2023-05-22T04:45:42.896Z,101474.75
2023-05-22T04:48:12.870Z,101452.89
2023-05-22T04:50:44.412Z,101452.89
2023-05-22T04:53:14.711Z,101472.52
2023-05-22T04:55:45.966Z,101473.45
2023-05-22T04:58:15.885Z,101470.07
2023-05-22T05:00:45.792Z,101472.55
2023-05-22T05:03:15.919Z,101469.64
2023-05-22T05:05:45.978Z,101467.42
2023-05-22T05:08:16.091Z,101472.73
2023-05-22T05:10:46.095Z,101468.69
2023-05-22T05:13:15.951Z,101468.69
2023-05-22T05:15:47.687Z,101486.05
2023-05-22T05:18:17.368Z,101487.02
2023-05-22T05:20:47.287Z,101486.02
2023-05-22T05:23:17.296Z,101468.64
2023-05-22T05:25:46.863Z,101468.64
2023-05-22T05:28:16.829Z,101492.59
2023-05-22T05:30:46.940Z,101497.73
2023-05-22T05:33:30.893Z,101496.44
2023-05-22T05:36:18.500Z,101494.95
2023-05-22T05:38:48.829Z,101500.58
2023-05-22T05:41:19.177Z,101511.09
2023-05-22T05:43:52.250Z,101510.34
2023-05-22T05:46:22.049Z,101510.92
2023-05-22T05:48:51.893Z,101511.13
2023-05-22T05:51:22.207Z,101511.34
2023-05-22T05:53:52.754Z,101509.23
2023-05-22T05:56:22.861Z,101504.15
2023-05-22T05:58:53.587Z,101505.46
2023-05-22T06:01:39.937Z,101505.45
2023-05-22T06:04:11.997Z,101508.84
2023-05-22T06:06:42.353Z,101507.66
2023-05-22T06:09:14.076Z,101519.45
2023-05-22T06:12:01.629Z,101521.51
2023-05-22T06:14:31.658Z,101521.20
2023-05-22T06:17:01.312Z,101516.17
2023-05-22T06:19:31.316Z,101526.46
2023-05-22T06:22:01.280Z,101514.41
2023-05-22T06:24:32.509Z,101525.95
2023-05-22T06:27:04.057Z,101523.03
2023-05-22T06:29:34.194Z,101531.48
2023-05-22T06:32:06.723Z,101531.32
2023-05-22T06:34:38.118Z,101542.47
2023-05-22T06:37:08.568Z,101538.93
2023-05-22T06:39:40.799Z,101536.44
2023-05-22T06:42:28.404Z,101530.73
2023-05-22T06:45:08.110Z,101536.75
2023-05-22T06:47:39.738Z,101536.68
2023-05-22T06:50:11.924Z,101535.06
2023-05-22T06:52:41.540Z,101535.06
2023-05-22T06:55:12.865Z,101524.27
2023-05-22T06:57:44.798Z,101521.76
2023-05-22T07:00:15.475Z,101521.76
2023-05-22T07:02:56.104Z,101536.59
2023-05-22T07:05:27.746Z,101541.33
2023-05-22T07:07:59.334Z,101545.02
2023-05-22T07:10:29.198Z,101547.28
2023-05-22T07:13:00.023Z,101549.34
2023-05-22T07:15:31.326Z,101548.70
2023-05-22T07:18:03.036Z,101547.84
2023-05-22T07:20:32.949Z,101548.17
2023-05-22T07:23:04.588Z,101556.66
2023-05-22T07:25:34.520Z,101539.59
2023-05-22T07:28:08.121Z,101539.21
2023-05-22T07:30:39.987Z,101544.33
2023-05-22T07:33:10.222Z,101545.45
2023-05-22T07:35:41.175Z,101548.53
2023-05-22T07:38:11.723Z,101551.14
2023-05-22T07:40:42.678Z,101551.65
2023-05-22T07:43:14.521Z,101532.03
2023-05-22T07:45:44.388Z,101532.03
2023-05-22T07:48:15.130Z,101545.37
2023-05-22T07:50:46.390Z,101550.08
2023-05-22T07:53:16.354Z,101550.27
2023-05-22T07:55:47.046Z,101545.89
2023-05-22T07:58:17.023Z,101545.89
2023-05-22T08:00:47.524Z,101564.80
2023-05-22T08:03:18.063Z,101562.76
2023-05-22T08:05:48.436Z,101565.53
2023-05-22T08:08:18.176Z,101571.28
2023-05-22T08:11:03.159Z,101569.40
2023-05-22T08:13:20.862Z,101571.90
2023-05-22T08:15:50.757Z,101571.92
2023-05-22T08:18:22.441Z,101569.19
2023-05-22T08:20:54.979Z,101574.03
2023-05-22T08:23:24.979Z,101576.67
2023-05-22T08:25:54.826Z,101574.92
2023-05-22T08:28:24.564Z,101574.73
2023-05-22T08:30:55.195Z,101578.39
2023-05-22T08:33:25.177Z,101576.00
2023-05-22T08:35:55.050Z,101579.63
2023-05-22T08:38:24.752Z,101570.98
2023-05-22T08:40:57.793Z,101570.09
2023-05-22T08:43:31.453Z,101569.20
2023-05-22T08:46:09.271Z,101566.45
2023-05-22T08:48:41.507Z,101572.00
2023-05-22T08:51:16.464Z,101558.03
2023-05-22T08:53:49.340Z,101552.84
2023-05-22T08:56:19.735Z,101555.16
2023-05-22T08:58:51.499Z,101557.86
2023-05-22T09:01:21.744Z,101559.73
2023-05-22T09:03:52.901Z,101555.55
2023-05-22T09:06:23.139Z,101549.92
2023-05-22T09:08:53.311Z,101550.62
2023-05-22T09:11:23.150Z,101556.92
2023-05-22T09:13:53.280Z,101555.97
2023-05-22T09:16:23.256Z,101559.11
2023-05-22T09:18:53.103Z,101559.23
2023-05-22T09:23:54.699Z,101563.14
2023-05-22T09:26:27.498Z,101559.86
2023-05-22T09:28:58.954Z,101558.96
2023-05-22T09:31:30.783Z,101558.26
2023-05-22T09:34:00.389Z,101557.48
2023-05-22T09:36:34.182Z,101554.84
2023-05-22T09:39:05.249Z,101537.70
2023-05-22T09:41:39.974Z,101537.70
2023-05-22T09:44:16.018Z,101553.10
2023-05-22T09:46:48.712Z,101549.44
2023-05-22T09:49:18.998Z,101540.19
2023-05-22T09:51:49.895Z,101547.86
2023-05-22T09:54:21.680Z,101548.29
2023-05-22T09:56:53.448Z,101543.52
2023-05-22T09:59:26.667Z,101549.91
2023-05-22T10:01:57.232Z,101542.14
2023-05-22T10:04:28.134Z,101547.14
2023-05-22T10:07:00.856Z,101537.11
2023-05-22T10:09:34.315Z,101532.66
2023-05-22T10:12:09.035Z,101508.08
2023-05-22T10:14:39.136Z,101508.08
2023-05-22T10:17:11.231Z,101532.36
2023-05-22T10:19:44.499Z,101526.77
2023-05-22T10:22:16.935Z,101527.69
2023-05-22T10:24:49.213Z,101523.67
2023-05-22T10:27:19.062Z,101526.38
2023-05-22T10:30:14.497Z,101524.06
2023-05-22T10:33:11.539Z,101512.91
2023-05-22T10:35:55.840Z,101517.52
2023-05-22T10:39:00.060Z,101503.15
2023-05-22T10:41:30.927Z,101508.14
2023-05-22T10:44:00.804Z,101507.61
2023-05-22T10:46:35.118Z,101508.45
2023-05-22T10:49:05.097Z,101506.05
2023-05-22T10:51:35.469Z,101510.36
2023-05-22T10:54:06.537Z,101504.77
2023-05-22T10:56:36.903Z,101497.94
2023-05-22T10:59:08.472Z,101501.08
2023-05-22T11:01:38.840Z,101503.11
2023-05-22T11:04:16.155Z,101506.14
2023-05-22T11:06:49.947Z,101507.62
2023-05-22T11:09:37.510Z,101506.17
2023-05-22T11:12:20.602Z,101506.01
2023-05-22T11:14:52.282Z,101506.33
2023-05-22T11:17:24.100Z,101508.47
2023-05-22T11:20:08.202Z,101503.59
2023-05-22T11:22:46.796Z,101499.73
2023-05-22T11:25:21.013Z,101495.50
2023-05-22T11:27:51.237Z,101498.31
2023-05-22T11:30:23.149Z,101492.50
2023-05-22T11:32:53.253Z,101491.70
2023-05-22T11:35:23.813Z,101488.89
2023-05-22T11:37:55.144Z,101482.95
2023-05-22T11:40:26.199Z,101492.65
2023-05-22T11:42:56.671Z,101486.83
2023-05-22T11:45:27.573Z,101484.17
2023-05-22T11:47:57.325Z,101481.30
2023-05-22T11:50:41.051Z,101481.60
2023-05-22T11:52:59.662Z,101478.75
2023-05-22T11:55:29.526Z,101479.09
2023-05-22T11:58:01.084Z,101474.20
2023-05-22T12:00:32.472Z,101476.78
2023-05-22T12:03:02.281Z,101482.56
2023-05-22T12:05:33.618Z,101473.06
2023-05-22T12:08:03.213Z,101451.30
2023-05-22T12:10:33.053Z,101458.62
2023-05-22T12:13:02.917Z,101458.92
2023-05-22T12:15:32.470Z,101459.45
2023-05-22T12:18:02.418Z,101457.73
2023-05-22T12:20:32.610Z,101457.73
2023-05-22T12:23:02.189Z,101450.42
2023-05-22T12:25:39.805Z,101453.92
2023-05-22T12:28:11.478Z,101461.92
2023-05-22T12:30:42.686Z,101454.55
2023-05-22T12:33:16.233Z,101439.95
2023-05-22T12:35:46.153Z,101439.95
2023-05-22T12:38:16.080Z,101448.03
2023-05-22T12:40:46.495Z,101451.77
2023-05-22T12:43:16.376Z,101455.22
2023-05-22T12:45:46.301Z,101454.96
2023-05-22T12:48:16.490Z,101451.69
2023-05-22T12:50:46.965Z,101463.00
2023-05-22T12:53:16.785Z,101456.55
2023-05-22T12:55:46.647Z,101433.97
2023-05-22T12:58:16.360Z,101433.97
2023-05-22T13:00:46.288Z,101454.31
2023-05-22T13:03:16.358Z,101448.69
2023-05-22T13:05:46.126Z,101447.22
2023-05-22T13:08:16.219Z,101444.14
2023-05-22T13:10:46.138Z,101446.34
2023-05-22T13:13:15.994Z,101449.55
2023-05-22T13:15:46.437Z,101441.18
2023-05-22T13:18:16.591Z,101439.84
2023-05-22T13:20:46.446Z,101442.36
2023-05-22T13:23:16.286Z,101441.98
2023-05-22T13:25:46.130Z,101430.62
2023-05-22T13:28:15.987Z,101438.58
2023-05-22T13:30:45.916Z,101439.04
2023-05-22T13:33:15.460Z,101444.48
2023-05-22T13:35:45.455Z,101437.13
2023-05-22T13:38:15.097Z,101441.02
2023-05-22T13:40:46.919Z,101431.07
2023-05-22T13:43:16.297Z,101438.38
2023-05-22T13:45:46.169Z,101439.68
2023-05-22T13:48:16.087Z,101433.91
2023-05-22T13:50:46.001Z,101433.65
2023-05-22T13:53:15.891Z,101428.99
2023-05-22T13:55:46.121Z,101421.38
2023-05-22T13:58:16.106Z,101424.50
2023-05-22T14:00:46.319Z,101427.45
2023-05-22T14:03:17.820Z,101437.94
2023-05-22T14:05:48.137Z,101419.95
2023-05-22T14:08:18.072Z,101419.95
2023-05-22T14:10:47.995Z,101431.38
2023-05-22T14:13:17.869Z,101437.81
2023-05-22T14:15:47.800Z,101435.18
2023-05-22T14:18:17.505Z,101443.32
2023-05-22T14:20:47.752Z,101456.73
2023-05-22T14:23:17.447Z,101440.77
2023-05-22T14:25:47.649Z,101443.62
2023-05-22T14:28:17.297Z,101449.48
2023-05-22T14:30:47.310Z,101453.31
2023-05-22T14:33:17.180Z,101446.12
2023-05-22T14:35:48.381Z,101446.12
2023-05-22T14:38:18.225Z,101469.33
2023-05-22T14:40:48.117Z,101475.92
2023-05-22T14:43:17.972Z,101479.14
2023-05-22T14:45:47.873Z,101477.58
2023-05-22T14:48:17.484Z,101479.64
2023-05-22T14:50:48.442Z,101476.44
2023-05-22T14:53:18.602Z,101480.52
2023-05-22T14:55:48.762Z,101479.14
2023-05-22T14:58:18.771Z,101481.80
2023-05-22T15:00:48.674Z,101484.28
2023-05-22T15:03:19.053Z,101489.27
2023-05-22T15:05:49.161Z,101499.84
2023-05-22T15:08:20.454Z,101499.84
2023-05-22T15:10:50.461Z,101502.32
2023-05-22T15:13:21.397Z,101503.48
2023-05-22T15:15:51.622Z,101507.41
2023-05-22T15:18:21.209Z,101497.25
2023-05-22T15:20:51.142Z,101503.53
2023-05-22T15:23:23.826Z,101500.69
2023-05-22T15:25:54.619Z,101505.91
2023-05-22T15:28:24.518Z,101505.47
2023-05-22T15:30:54.358Z,101508.52
2023-05-22T15:33:24.227Z,101507.31
2023-05-22T15:35:54.057Z,101505.93
2023-05-22T15:38:24.193Z,101508.41
2023-05-22T15:40:54.502Z,101501.53
2023-05-22T15:43:26.027Z,101503.41
2023-05-22T15:45:56.008Z,101503.77
2023-05-22T15:48:25.964Z,101503.00
2023-05-22T15:50:55.845Z,101511.11
2023-05-22T15:53:25.845Z,101514.94
2023-05-22T15:55:55.699Z,101509.99
2023-05-22T15:58:25.550Z,101508.89
2023-05-22T16:00:58.238Z,101511.34
2023-05-22T16:03:28.245Z,101510.23
2023-05-22T16:05:58.171Z,101511.16
2023-05-22T16:08:27.999Z,101512.80
2023-05-22T16:10:59.789Z,101514.14
2023-05-22T16:13:30.019Z,101512.87
2023-05-22T16:15:59.894Z,101513.70
2023-05-22T16:18:29.786Z,101514.83
2023-05-22T16:20:59.621Z,101520.69
2023-05-22T16:23:29.479Z,101522.39
2023-05-22T16:25:59.327Z,101526.86
2023-05-22T16:28:29.169Z,101529.38
2023-05-22T16:30:59.083Z,101527.99
2023-05-22T16:33:28.940Z,101529.71
2023-05-22T16:35:59.084Z,101529.61
2023-05-22T16:38:28.926Z,101535.83
2023-05-22T16:40:58.768Z,101536.48
2023-05-22T16:43:28.790Z,101538.16
2023-05-22T16:45:58.643Z,101532.14
2023-05-22T16:48:28.547Z,101543.30
2023-05-22T16:50:58.514Z,101543.17
2023-05-22T16:53:28.376Z,101531.91
2023-05-22T16:55:59.706Z,101536.25
2023-05-22T16:58:29.558Z,101539.94
2023-05-22T17:00:59.596Z,101546.33
2023-05-22T17:03:29.546Z,101545.97
2023-05-22T17:05:59.587Z,101550.97
2023-05-22T17:08:29.705Z,101559.92
2023-05-22T17:10:59.557Z,101558.58
2023-05-22T17:13:29.496Z,101559.69
2023-05-22T17:15:59.697Z,101564.48
2023-05-22T17:18:29.821Z,101568.75
2023-05-22T17:21:00.305Z,101567.12
2023-05-22T17:23:30.448Z,101564.48
2023-05-22T17:26:01.001Z,101568.76
2023-05-22T17:28:31.250Z,101575.66
2023-05-22T17:31:01.243Z,101576.11
2023-05-22T17:33:31.860Z,101575.48
2023-05-22T17:36:01.924Z,101579.44
2023-05-22T17:38:31.776Z,101582.37
2023-05-22T17:41:01.484Z,101578.61
2023-05-22T17:43:33.009Z,101584.30
2023-05-22T17:46:03.574Z,101583.59
2023-05-22T17:48:34.415Z,101590.57
2023-05-22T17:51:04.389Z,101583.89
2023-05-22T17:53:35.705Z,101585.53
2023-05-22T17:56:07.032Z,101596.28
2023-05-22T17:58:36.604Z,101597.43
2023-05-22T18:01:06.477Z,101597.43
2023-05-22T18:03:36.466Z,101607.11
2023-05-22T18:06:08.348Z,101614.03
2023-05-22T18:08:39.805Z,101609.45
2023-05-22T18:11:09.636Z,101618.89
2023-05-22T18:13:39.512Z,101605.89
2023-05-22T18:16:11.207Z,101605.89
2023-05-22T18:18:41.079Z,101628.72
2023-05-22T18:21:11.464Z,101633.73
2023-05-22T18:23:41.733Z,101637.80
2023-05-22T18:26:12.997Z,101633.87
2023-05-22T18:28:42.867Z,101635.81
2023-05-22T18:31:13.041Z,101639.16
2023-05-22T18:33:44.373Z,101642.28
2023-05-22T18:36:14.331Z,101632.09
2023-05-22T18:38:44.179Z,101632.09
2023-05-22T18:41:14.382Z,101640.19
2023-05-22T18:43:44.238Z,101645.41
2023-05-22T18:46:14.075Z,101641.53
2023-05-22T18:48:43.952Z,101646.31
2023-05-22T18:51:13.796Z,101642.08
2023-05-22T18:53:44.168Z,101625.95
2023-05-22T18:56:16.273Z,101625.95
2023-05-22T18:58:46.132Z,101646.87
2023-05-22T19:01:17.262Z,101646.73
2023-05-22T19:03:47.147Z,101646.80
2023-05-22T19:06:18.768Z,101652.91
2023-05-22T19:08:48.624Z,101658.33
2023-05-22T19:11:18.538Z,101665.65
2023-05-22T19:13:48.377Z,101673.83
2023-05-22T19:16:18.460Z,101678.88
2023-05-22T19:18:48.337Z,101678.45
2023-05-22T19:21:18.251Z,101685.09
2023-05-22T19:23:48.658Z,101689.14
2023-05-22T19:26:18.279Z,101682.61
2023-05-22T19:28:48.373Z,101685.03
2023-05-22T19:31:18.181Z,101678.79
2023-05-22T19:33:48.097Z,101692.91
2023-05-22T19:36:18.198Z,101692.91
2023-05-22T19:38:48.268Z,101698.39
2023-05-22T19:41:18.143Z,101698.39
2023-05-22T19:43:47.973Z,101696.09
2023-05-22T19:46:17.828Z,101703.25
2023-05-22T19:48:47.683Z,101700.78
2023-05-22T19:51:17.536Z,101704.06
2023-05-22T19:53:47.441Z,101712.96
2023-05-22T19:56:17.311Z,101715.11
2023-05-22T19:58:47.161Z,101720.62
2023-05-22T20:01:17.616Z,101724.78
2023-05-22T20:03:47.834Z,101714.91
2023-05-22T20:06:17.617Z,101714.91
2023-05-22T20:08:47.759Z,101732.84
2023-05-22T20:11:17.603Z,101732.77
2023-05-22T20:13:47.442Z,101735.33
2023-05-22T20:16:17.391Z,101733.55
2023-05-22T20:18:48.700Z,101738.25
2023-05-22T20:21:19.134Z,101738.25
2023-05-22T20:23:48.983Z,101759.23
2023-05-22T20:26:19.712Z,101747.14
2023-05-22T20:28:49.560Z,101760.98
2023-05-22T20:31:19.723Z,101760.98
2023-05-22T20:33:49.626Z,101760.39
2023-05-22T20:36:19.178Z,101762.56
2023-05-22T20:38:49.006Z,101760.62
2023-05-22T20:41:19.620Z,101765.08
2023-05-22T20:43:50.361Z,101759.17
2023-05-22T20:46:20.307Z,101761.51
2023-05-22T20:48:51.340Z,101771.98
2023-05-22T20:51:21.466Z,101777.64
2023-05-22T20:53:53.363Z,101781.66
2023-05-22T20:56:23.243Z,101781.66
2023-05-22T20:58:53.105Z,101783.58
2023-05-22T21:01:24.274Z,101793.37
2023-05-22T21:03:56.649Z,101793.37
2023-05-22T21:06:26.404Z,101797.27
2023-05-22T21:08:58.072Z,101799.23
2023-05-22T21:11:28.450Z,101803.48
2023-05-22T21:13:58.670Z,101805.11
2023-05-22T21:16:28.248Z,101813.44
2023-05-22T21:18:58.180Z,101801.91
2023-05-22T21:21:28.163Z,101801.91
2023-05-22T21:23:57.997Z,101817.20
2023-05-22T21:26:27.826Z,101817.67
2023-05-22T21:28:57.840Z,101817.45
2023-05-22T21:31:27.747Z,101820.61
2023-05-22T21:33:57.607Z,101824.21
2023-05-22T21:36:27.161Z,101828.55
2023-05-22T21:38:58.667Z,101828.12
2023-05-22T21:41:28.728Z,101828.00
2023-05-22T21:43:59.404Z,101827.13
2023-05-22T21:46:28.963Z,101831.00
2023-05-22T21:48:58.816Z,101833.92
2023-05-22T21:51:28.652Z,101835.84
2023-05-22T21:53:58.488Z,101841.06
2023-05-22T21:56:28.320Z,101835.48
2023-05-22T21:58:58.476Z,101817.84
2023-05-22T22:01:28.327Z,101817.84
2023-05-22T22:03:58.206Z,101835.78
2023-05-22T22:06:28.116Z,101830.64
2023-05-22T22:08:59.665Z,101830.64
2023-05-22T22:11:29.918Z,101841.09
2023-05-22T22:13:59.759Z,101848.05
2023-05-22T22:16:29.331Z,101845.84
2023-05-22T22:19:01.132Z,101834.02
2023-05-22T22:21:32.729Z,101834.02
2023-05-22T22:24:02.667Z,101846.54
2023-05-22T22:26:32.962Z,101857.16
2023-05-22T22:29:03.081Z,101855.66
2023-05-22T22:31:33.301Z,101852.17
2023-05-22T22:34:04.852Z,101854.11
2023-05-22T22:36:35.546Z,101858.03
2023-05-22T22:39:05.228Z,101863.25
2023-05-22T22:41:34.814Z,101862.77
2023-05-22T22:44:04.704Z,101863.84
2023-05-22T22:46:34.672Z,101870.81
2023-05-22T22:49:04.877Z,101859.75
2023-05-22T22:51:34.708Z,101868.98
2023-05-22T22:54:04.641Z,101869.27
2023-05-22T22:56:34.620Z,101862.09
2023-05-22T22:59:04.473Z,101858.71
2023-05-22T23:01:34.511Z,101857.11
2023-05-22T23:04:04.467Z,101862.53
2023-05-22T23:06:35.140Z,101859.95
2023-05-22T23:09:05.160Z,101869.83
2023-05-22T23:11:37.859Z,101878.94
2023-05-22T23:14:09.740Z,101878.88
2023-05-22T23:16:42.797Z,101874.61
2023-05-22T23:19:13.672Z,101874.20
2023-05-22T23:21:43.211Z,101881.89
2023-05-22T23:24:12.797Z,101878.62
2023-05-22T23:26:42.650Z,101881.30
2023-05-22T23:29:13.195Z,101867.23
2023-05-22T23:31:43.043Z,101867.23
2023-05-22T23:34:13.169Z,101890.20
2023-05-22T23:36:43.491Z,101888.13
2023-05-22T23:39:13.654Z,101887.36
2023-05-22T23:41:44.371Z,101887.34
2023-05-22T23:44:14.537Z,101884.52
2023-05-22T23:46:44.466Z,101889.55
2023-05-22T23:49:14.803Z,101890.17
2023-05-22T23:51:44.638Z,101889.48
2023-05-22T23:54:14.430Z,101881.82
2023-05-22T23:56:44.985Z,101882.13
2023-05-22T23:59:15.727Z,101882.89
